Time;durP1;ratioP1;P1;durP2;ratioP2;P2;SDS_P1;SDS_P2;PMS_P1;PMS_P2;Temp;Humidity;BMP_temperature;BMP_pressure;BME280_temperature;BME280_humidity;BME280_pressure;Samples;Min_cycle;Max_cycle;Signal;HPM_P1;HPM_P2
2023/12/12 00:01:23;;;;;;;3.88;2.40;;;;;;;;;;4842066;29;20113;-84
2023/12/12 00:03:53;;;;;;;5.93;1.20;;;;;;;;;;4840549;29;20050;-87
2023/12/12 00:06:24;;;;;;;3.05;1.23;;;;;;;;;;4840665;29;20050;-84
2023/12/12 00:08:56;;;;;;;7.50;1.70;;;;;;;;;;4822309;29;20049;-84
2023/12/12 00:11:27;;;;;;;3.85;1.25;;;;;;;;;;4823721;29;20046;-84
2023/12/12 00:13:57;;;;;;;8.10;2.13;;;;;;;;;;4823805;29;20129;-85
2023/12/12 00:16:29;;;;;;;4.93;1.40;;;;;;;;;;4823772;29;20065;-86
2023/12/12 00:18:59;;;;;;;7.82;1.67;;;;;;;;;;4823432;29;20047;-85
2023/12/12 00:21:30;;;;;;;9.95;1.70;;;;;;;;;;4822113;29;20055;-84
2023/12/12 00:23:59;;;;;;;5.75;1.45;;;;;;;;;;4821994;29;20070;-86
2023/12/12 00:26:30;;;;;;;4.22;1.50;;;;;;;;;;4822206;29;20058;-85
2023/12/12 00:29:00;;;;;;;3.45;2.00;;;;;;;;;;4820775;29;20058;-84
2023/12/12 00:31:30;;;;;;;4.47;2.38;;;;;;;;;;4822697;29;20050;-85
2023/12/12 00:34:01;;;;;;;3.25;1.05;;;;;;;;;;4821153;29;20415;-86
2023/12/12 00:36:32;;;;;;;6.95;1.60;;;;;;;;;;4822617;29;20557;-84
2023/12/12 00:39:03;;;;;;;3.22;1.50;;;;;;;;;;4820903;29;20065;-85
2023/12/12 00:41:34;;;;;;;4.82;2.22;;;;;;;;;;4822311;29;20062;-85
2023/12/12 00:44:05;;;;;;;6.40;2.00;;;;;;;;;;4820947;29;20062;-86
2023/12/12 00:46:36;;;;;;;5.93;1.52;;;;;;;;;;4820358;29;20061;-86
2023/12/12 00:49:07;;;;;;;5.65;1.77;;;;;;;;;;4820714;29;20054;-86
2023/12/12 00:51:38;;;;;;;10.25;1.90;;;;;;;;;;4832511;29;20046;-84
2023/12/12 00:54:08;;;;;;;6.55;1.60;;;;;;;;;;4842382;29;20056;-85
2023/12/12 00:56:38;;;;;;;6.97;1.60;;;;;;;;;;4843653;29;20053;-87
2023/12/12 00:59:08;;;;;;;5.53;1.60;;;;;;;;;;4827567;29;20058;-84
2023/12/12 01:01:38;;;;;;;5.13;1.63;;;;;;;;;;4827025;29;20061;-85
2023/12/12 01:04:08;;;;;;;14.73;1.52;;;;;;;;;;4843268;29;20050;-85
2023/12/12 01:06:40;;;;;;;4.05;1.13;;;;;;;;;;4842596;29;20449;-84
2023/12/12 01:09:10;;;;;;;3.50;1.42;;;;;;;;;;4843886;29;20054;-84
2023/12/12 01:11:40;;;;;;;5.32;1.67;;;;;;;;;;4843519;29;20045;-85
2023/12/12 01:14:10;;;;;;;8.18;1.70;;;;;;;;;;4843442;29;20494;-86
2023/12/12 01:16:40;;;;;;;5.75;1.67;;;;;;;;;;4842003;29;20049;-84
2023/12/12 01:19:12;;;;;;;10.38;2.17;;;;;;;;;;4843909;29;20057;-84
2023/12/12 01:21:42;;;;;;;4.57;1.77;;;;;;;;;;4841730;29;20050;-84
2023/12/12 01:24:12;;;;;;;4.63;2.00;;;;;;;;;;4840618;29;20061;-84
2023/12/12 01:26:42;;;;;;;5.15;2.00;;;;;;;;;;4841461;29;20521;-86
2023/12/12 01:29:16;;;;;;;4.22;1.50;;;;;;;;;;4841553;29;20050;-84
2023/12/12 01:31:47;;;;;;;4.38;1.83;;;;;;;;;;4842226;29;20057;-85
2023/12/12 01:34:18;;;;;;;4.32;1.88;;;;;;;;;;4841570;29;20060;-83
2023/12/12 01:36:49;;;;;;;3.67;1.88;;;;;;;;;;4841229;29;20054;-84
2023/12/12 01:39:19;;;;;;;5.05;1.65;;;;;;;;;;4826697;29;20612;-84
2023/12/12 01:41:50;;;;;;;3.65;1.70;;;;;;;;;;4841384;29;20050;-83
2023/12/12 01:44:20;;;;;;;15.77;2.13;;;;;;;;;;4842753;29;20058;-85
2023/12/12 01:46:51;;;;;;;8.02;2.10;;;;;;;;;;4843021;29;20045;-84
2023/12/12 01:49:22;;;;;;;6.78;1.80;;;;;;;;;;4841740;29;20137;-86
2023/12/12 01:51:52;;;;;;;9.32;1.65;;;;;;;;;;4842667;29;20061;-86
2023/12/12 01:54:23;;;;;;;6.13;1.67;;;;;;;;;;4832909;29;20051;-85
2023/12/12 01:56:55;;;;;;;5.80;1.63;;;;;;;;;;4823519;29;20057;-85
2023/12/12 01:59:26;;;;;;;3.80;1.63;;;;;;;;;;4824748;29;20058;-84
2023/12/12 02:01:56;;;;;;;5.78;1.70;;;;;;;;;;4823088;29;20058;-84
2023/12/12 02:04:27;;;;;;;5.50;1.80;;;;;;;;;;4823699;29;20046;-83
2023/12/12 02:07:03;;;;;;;9.05;1.83;;;;;;;;;;4829445;29;20166;-83
2023/12/12 02:09:33;;;;;;;5.40;1.80;;;;;;;;;;4840715;29;20050;-83
2023/12/12 02:12:03;;;;;;;4.72;1.80;;;;;;;;;;4840477;29;20054;-85
2023/12/12 02:14:37;;;;;;;4.53;1.60;;;;;;;;;;4842683;29;20045;-83
2023/12/12 02:17:07;;;;;;;6.40;1.77;;;;;;;;;;4841054;29;20535;-84
2023/12/12 02:19:38;;;;;;;8.50;1.70;;;;;;;;;;4840882;29;20050;-84
2023/12/12 02:22:09;;;;;;;7.28;1.73;;;;;;;;;;4840648;29;20060;-84
2023/12/12 02:24:39;;;;;;;3.90;1.70;;;;;;;;;;4840797;29;20447;-85
2023/12/12 02:27:10;;;;;;;5.40;1.70;;;;;;;;;;4842122;29;20148;-83
2023/12/12 02:29:40;;;;;;;4.13;1.80;;;;;;;;;;4841926;29;20054;-84
2023/12/12 02:32:10;;;;;;;7.15;1.88;;;;;;;;;;4842203;29;20054;-82
2023/12/12 02:34:41;;;;;;;5.53;1.55;;;;;;;;;;4841967;29;20069;-84
2023/12/12 02:37:11;;;;;;;7.07;1.90;;;;;;;;;;4825638;29;20057;-86
2023/12/12 02:39:42;;;;;;;12.23;2.05;;;;;;;;;;4853471;29;20053;-84
2023/12/12 02:42:12;;;;;;;7.72;2.30;;;;;;;;;;4862057;29;20053;-84
2023/12/12 02:44:42;;;;;;;6.57;1.70;;;;;;;;;;4859332;29;20412;-83
2023/12/12 02:47:12;;;;;;;9.82;1.80;;;;;;;;;;4861117;29;20041;-85
2023/12/12 02:49:42;;;;;;;2.58;2.08;;;;;;;;;;4860106;29;20050;-84
2023/12/12 02:52:12;;;;;;;10.57;1.30;;;;;;;;;;4861747;29;20374;-85
2023/12/12 02:54:42;;;;;;;8.93;1.90;;;;;;;;;;4860920;29;20053;-85
2023/12/12 02:57:13;;;;;;;3.63;1.92;;;;;;;;;;4861232;29;20053;-84
2023/12/12 02:59:45;;;;;;;7.30;2.15;;;;;;;;;;4861418;29;20053;-84
2023/12/12 03:02:15;;;;;;;6.68;1.70;;;;;;;;;;4859376;29;20058;-84
2023/12/12 03:04:46;;;;;;;4.97;1.50;;;;;;;;;;4861064;29;20049;-86
2023/12/12 03:07:17;;;;;;;4.68;1.70;;;;;;;;;;4860891;29;20060;-85
2023/12/12 03:09:49;;;;;;;6.93;2.00;;;;;;;;;;4860964;29;20477;-85
2023/12/12 03:12:19;;;;;;;3.75;1.80;;;;;;;;;;4861388;29;20076;-86
2023/12/12 03:14:50;;;;;;;11.40;2.20;;;;;;;;;;4859157;29;20053;-85
2023/12/12 03:17:21;;;;;;;3.70;1.60;;;;;;;;;;4858876;29;20054;-85
2023/12/12 03:19:52;;;;;;;4.45;2.40;;;;;;;;;;4844476;29;20057;-83
2023/12/12 03:22:22;;;;;;;5.43;1.90;;;;;;;;;;4859649;29;20054;-83
2023/12/12 03:24:53;;;;;;;9.07;1.80;;;;;;;;;;4861109;29;20052;-84
2023/12/12 03:27:24;;;;;;;10.25;1.90;;;;;;;;;;4859858;29;20485;-86
2023/12/12 03:29:56;;;;;;;5.13;2.10;;;;;;;;;;4859107;29;20050;-85
2023/12/12 03:32:29;;;;;;;6.22;2.08;;;;;;;;;;4859115;29;20060;-85
2023/12/12 03:35:00;;;;;;;9.98;1.98;;;;;;;;;;4842201;29;20057;-85
2023/12/12 03:37:31;;;;;;;8.25;1.88;;;;;;;;;;4842447;29;20054;-86
2023/12/12 03:40:03;;;;;;;4.40;2.00;;;;;;;;;;4842720;29;20054;-85
2023/12/12 03:42:34;;;;;;;;;;;;;;;;;;4842841;29;20053;-84
2023/12/12 03:45:04;;;;;;;6.82;1.58;;;;;;;;;;4842141;29;19925;-82
2023/12/12 03:47:35;;;;;;;3.55;1.90;;;;;;;;;;4842223;29;20050;-86
2023/12/12 03:50:06;;;;;;;9.73;1.90;;;;;;;;;;4842201;29;20505;-84
2023/12/12 03:52:36;;;;;;;4.75;2.20;;;;;;;;;;4840818;29;20050;-86
2023/12/12 03:55:08;;;;;;;6.03;1.40;;;;;;;;;;4840656;29;20413;-84
2023/12/12 03:57:40;;;;;;;5.47;2.03;;;;;;;;;;4840616;29;20058;-84
2023/12/12 04:00:13;;;;;;;6.13;1.85;;;;;;;;;;4840670;29;20054;-84
2023/12/12 04:02:43;;;;;;;3.95;2.22;;;;;;;;;;4826408;29;20073;-84
2023/12/12 04:05:13;;;;;;;7.90;1.95;;;;;;;;;;4842235;29;20053;-86
2023/12/12 04:07:44;;;;;;;8.27;2.55;;;;;;;;;;4840537;29;20490;-85
2023/12/12 04:10:16;;;;;;;5.88;2.15;;;;;;;;;;4842275;29;20049;-85
2023/12/12 04:12:46;;;;;;;4.28;1.95;;;;;;;;;;4841682;29;20068;-85
2023/12/12 04:15:16;;;;;;;10.40;2.03;;;;;;;;;;4840851;29;20077;-84
2023/12/12 04:17:47;;;;;;;4.80;2.00;;;;;;;;;;4841921;29;20054;-87
2023/12/12 04:20:18;;;;;;;4.63;2.10;;;;;;;;;;4840828;29;20065;-85
2023/12/12 04:22:49;;;;;;;9.80;2.72;;;;;;;;;;4841267;29;20049;-86
2023/12/12 04:25:22;;;;;;;;;;;;;;;;;;4856093;29;20074;-86
2023/12/12 04:27:52;;;;;;;;;;;;;;;;;;4829453;29;19928;-85
2023/12/12 04:30:23;;;;;;;4.80;2.08;;;;;;;;;;4844025;29;19925;-85
2023/12/12 04:32:54;;;;;;;11.25;2.55;;;;;;;;;;4845577;29;20057;-86
2023/12/12 04:35:24;;;;;;;5.43;2.45;;;;;;;;;;4844018;29;20053;-84
2023/12/12 04:37:54;;;;;;;12.38;2.15;;;;;;;;;;4844088;29;20058;-84
2023/12/12 04:40:27;;;;;;;6.05;2.13;;;;;;;;;;4844489;29;20053;-84
2023/12/12 04:42:58;;;;;;;4.22;1.90;;;;;;;;;;4843969;29;20049;-85
2023/12/12 04:45:28;;;;;;;5.63;2.17;;;;;;;;;;4843847;29;20523;-85
2023/12/12 04:47:58;;;;;;;3.90;2.20;;;;;;;;;;4845441;29;20059;-85
2023/12/12 04:50:29;;;;;;;4.75;2.03;;;;;;;;;;4844163;29;20049;-85
2023/12/12 04:53:00;;;;;;;3.80;2.10;;;;;;;;;;4843641;29;20470;-86
2023/12/12 04:55:30;;;;;;;7.65;1.70;;;;;;;;;;4843581;29;20417;-87
2023/12/12 04:58:01;;;;;;;6.32;2.47;;;;;;;;;;4843920;29;20049;-87
2023/12/12 05:00:31;;;;;;;4.88;1.42;;;;;;;;;;4843416;29;20401;-84
2023/12/12 05:03:04;;;;;;;5.40;2.17;;;;;;;;;;4845045;29;20512;-84
2023/12/12 05:05:35;;;;;;;12.98;2.03;;;;;;;;;;4843401;29;20050;-83
2023/12/12 05:08:06;;;;;;;7.18;2.78;;;;;;;;;;4842888;29;20509;-85
2023/12/12 05:10:36;;;;;;;4.82;1.70;;;;;;;;;;4829138;29;20501;-87
2023/12/12 05:13:07;;;;;;;3.83;2.03;;;;;;;;;;4844662;29;20053;-84
2023/12/12 05:15:37;;;;;;;7.40;2.42;;;;;;;;;;4844680;29;20046;-83
2023/12/12 05:18:08;;;;;;;6.70;2.05;;;;;;;;;;4844874;29;20489;-85
2023/12/12 05:20:38;;;;;;;6.38;2.67;;;;;;;;;;4843248;29;20057;-83
2023/12/12 05:23:09;;;;;;;4.93;2.28;;;;;;;;;;4828516;29;20065;-86
2023/12/12 05:25:40;;;;;;;6.00;2.10;;;;;;;;;;4843331;29;20054;-83
2023/12/12 05:28:11;;;;;;;5.03;2.38;;;;;;;;;;4844286;29;20037;-84
2023/12/12 05:30:42;;;;;;;5.55;2.22;;;;;;;;;;4843332;29;20050;-84
2023/12/12 05:33:12;;;;;;;6.80;2.47;;;;;;;;;;4844679;29;20442;-85
2023/12/12 05:35:45;;;;;;;8.95;2.70;;;;;;;;;;4843025;29;20062;-85
2023/12/12 05:38:15;;;;;;;7.15;1.73;;;;;;;;;;4841796;29;20409;-84
2023/12/12 05:40:45;;;;;;;4.97;2.28;;;;;;;;;;4843230;29;20065;-84
2023/12/12 05:43:15;;;;;;;5.10;2.05;;;;;;;;;;4843147;29;20057;-84
2023/12/12 05:45:46;;;;;;;4.05;2.22;;;;;;;;;;4843909;29;20058;-86
2023/12/12 05:48:18;;;;;;;5.03;2.55;;;;;;;;;;4842729;29;20053;-86
2023/12/12 05:50:48;;;;;;;7.78;2.97;;;;;;;;;;4842316;29;20054;-84
2023/12/12 05:53:18;;;;;;;9.05;1.90;;;;;;;;;;4842664;29;20446;-85
2023/12/12 05:55:49;;;;;;;7.28;2.47;;;;;;;;;;4842411;29;20050;-85
2023/12/12 05:58:19;;;;;;;7.82;2.20;;;;;;;;;;4857323;29;20065;-82
2023/12/12 06:00:53;;;;;;;5.68;2.03;;;;;;;;;;4842968;29;20050;-84
2023/12/12 06:03:24;;;;;;;6.72;2.10;;;;;;;;;;4843127;29;20053;-83
2023/12/12 06:05:55;;;;;;;5.70;2.20;;;;;;;;;;4842560;29;20046;-83
2023/12/12 06:08:26;;;;;;;3.05;1.98;;;;;;;;;;4843646;29;20083;-86
2023/12/12 06:10:57;;;;;;;5.72;1.95;;;;;;;;;;4842379;29;20057;-84
2023/12/12 06:13:29;;;;;;;;;;;;;;;;;;4843960;29;20417;-82
2023/12/12 06:15:58;;;;;;;6.03;2.40;;;;;;;;;;4843735;29;19928;-84
2023/12/12 06:18:30;;;;;;;5.28;2.10;;;;;;;;;;4857181;29;20054;-85
2023/12/12 06:21:01;;;;;;;4.55;2.40;;;;;;;;;;4842187;29;20536;-86
2023/12/12 06:23:32;;;;;;;;;;;;;;;;;;4842762;29;20058;-84
2023/12/12 06:26:03;;;;;;;7.18;1.85;;;;;;;;;;4842296;29;20298;-85
2023/12/12 06:28:34;;;;;;;4.57;1.70;;;;;;;;;;4841974;29;20413;-84
2023/12/12 06:31:05;;;;;;;8.13;3.13;;;;;;;;;;4841790;29;20049;-85
2023/12/12 06:33:38;;;;;;;6.28;2.20;;;;;;;;;;4843666;29;20066;-87
2023/12/12 06:36:09;;;;;;;11.32;2.55;;;;;;;;;;4843724;29;20050;-86
2023/12/12 06:38:40;;;;;;;7.53;2.17;;;;;;;;;;4843237;29;20058;-86
2023/12/12 06:41:10;;;;;;;4.78;2.38;;;;;;;;;;4843021;29;20050;-86
2023/12/12 06:43:45;;;;;;;9.00;2.50;;;;;;;;;;4841632;29;20077;-85
2023/12/12 06:46:20;;;;;;;5.95;2.80;;;;;;;;;;4842213;29;20052;-85
2023/12/12 06:48:50;;;;;;;5.93;2.20;;;;;;;;;;4841099;29;20058;-86
2023/12/12 06:51:21;;;;;;;5.10;2.10;;;;;;;;;;4843053;29;20517;-86
2023/12/12 06:53:52;;;;;;;5.30;2.63;;;;;;;;;;4842031;29;20053;-87
2023/12/12 06:56:23;;;;;;;4.45;2.50;;;;;;;;;;4843028;29;20372;-87
2023/12/12 06:58:54;;;;;;;4.82;2.30;;;;;;;;;;4841520;29;20054;-85
2023/12/12 07:01:25;;;;;;;9.70;2.85;;;;;;;;;;4843181;29;20042;-84
2023/12/12 07:03:57;;;;;;;5.93;2.20;;;;;;;;;;4842995;29;20050;-86
2023/12/12 07:06:27;;;;;;;5.68;2.55;;;;;;;;;;4842863;29;20046;-87
2023/12/12 07:08:59;;;;;;;4.20;2.58;;;;;;;;;;4841326;29;20065;-86
2023/12/12 07:11:29;;;;;;;3.70;2.17;;;;;;;;;;4840933;29;20057;-88
2023/12/12 07:13:59;;;;;;;5.22;1.88;;;;;;;;;;4841653;29;20058;-84
2023/12/12 07:16:30;;;;;;;8.23;2.30;;;;;;;;;;4841667;29;20046;-88
2023/12/12 07:19:02;;;;;;;3.97;2.20;;;;;;;;;;4843066;29;20050;-86
2023/12/12 07:21:39;;;;;;;6.07;2.40;;;;;;;;;;4842817;29;20458;-87
2023/12/12 07:24:10;;;;;;;6.50;2.53;;;;;;;;;;4841631;29;20061;-86
2023/12/12 07:26:44;;;;;;;4.82;2.45;;;;;;;;;;4840879;29;20050;-85
2023/12/12 07:29:19;;;;;;;6.57;3.65;;;;;;;;;;4842996;29;20050;-85
2023/12/12 07:31:50;;;;;;;8.60;2.65;;;;;;;;;;4841499;29;20065;-86
2023/12/12 07:34:21;;;;;;;6.60;2.03;;;;;;;;;;4842730;29;20042;-85
2023/12/12 07:36:51;;;;;;;6.05;2.13;;;;;;;;;;4841162;29;20058;-85
2023/12/12 07:39:22;;;;;;;6.45;2.50;;;;;;;;;;4840820;29;20057;-82
2023/12/12 07:41:52;;;;;;;5.07;2.97;;;;;;;;;;4840761;29;20061;-87
2023/12/12 07:44:24;;;;;;;6.13;3.17;;;;;;;;;;4842485;29;20062;-86
2023/12/12 07:46:55;;;;;;;6.05;2.42;;;;;;;;;;4841261;29;20046;-86
2023/12/12 07:49:26;;;;;;;5.43;2.25;;;;;;;;;;4842960;29;20045;-87
2023/12/12 07:51:57;;;;;;;7.45;3.05;;;;;;;;;;4841658;29;20054;-86
2023/12/12 07:54:27;;;;;;;6.03;2.20;;;;;;;;;;4856453;29;20061;-86
2023/12/12 07:56:58;;;;;;;6.00;2.28;;;;;;;;;;4840915;29;20061;-86
2023/12/12 07:59:30;;;;;;;5.13;3.53;;;;;;;;;;4841194;29;20057;-84
2023/12/12 08:02:01;;;;;;;9.23;2.17;;;;;;;;;;4845084;29;20057;-85
2023/12/12 08:04:32;;;;;;;7.70;2.42;;;;;;;;;;4846494;29;20054;-88
2023/12/12 08:07:03;;;;;;;5.88;2.47;;;;;;;;;;4844704;29;20490;-86
2023/12/12 08:09:34;;;;;;;9.27;2.47;;;;;;;;;;4844382;29;20517;-87
2023/12/12 08:12:04;;;;;;;7.60;2.60;;;;;;;;;;4845877;29;20494;-85
2023/12/12 08:14:34;;;;;;;6.22;2.65;;;;;;;;;;4845024;29;20058;-85
2023/12/12 08:17:08;;;;;;;5.13;2.33;;;;;;;;;;4845105;29;20050;-86
2023/12/12 08:19:38;;;;;;;5.07;2.50;;;;;;;;;;4845483;29;20066;-85
2023/12/12 08:22:10;;;;;;;4.25;1.90;;;;;;;;;;4843984;29;20389;-86
2023/12/12 08:24:40;;;;;;;4.45;2.40;;;;;;;;;;4844827;29;20057;-83
2023/12/12 08:27:13;;;;;;;7.25;2.38;;;;;;;;;;4845352;29;20057;-85
2023/12/12 08:29:45;;;;;;;7.88;2.60;;;;;;;;;;4845081;29;20054;-84
2023/12/12 08:32:16;;;;;;;5.90;2.55;;;;;;;;;;4843825;29;20061;-85
2023/12/12 08:34:46;;;;;;;5.40;3.60;;;;;;;;;;4844401;29;20061;-88
2023/12/12 08:37:20;;;;;;;9.55;2.80;;;;;;;;;;4845617;29;20057;-85
2023/12/12 08:39:51;;;;;;;4.07;2.15;;;;;;;;;;4845504;29;20401;-88
2023/12/12 08:42:21;;;;;;;4.53;2.88;;;;;;;;;;4845075;29;20073;-86
2023/12/12 08:44:53;;;;;;;4.50;2.15;;;;;;;;;;4843569;29;20058;-85
2023/12/12 08:47:23;;;;;;;7.65;2.75;;;;;;;;;;4843533;29;20054;-86
2023/12/12 08:49:59;;;;;;;5.15;1.70;;;;;;;;;;4844121;29;20397;-84
2023/12/12 08:52:31;;;;;;;7.82;2.70;;;;;;;;;;4845133;29;20056;-86
2023/12/12 08:55:10;;;;;;;6.68;2.40;;;;;;;;;;4845491;29;20052;-86
2023/12/12 08:57:41;;;;;;;6.65;1.90;;;;;;;;;;4844279;29;20405;-85
2023/12/12 09:00:12;;;;;;;9.63;2.90;;;;;;;;;;4844197;29;20058;-84
2023/12/12 09:02:43;;;;;;;;;;;;;;;;;;4843894;29;20413;-86
2023/12/12 09:05:14;;;;;;;5.18;2.40;;;;;;;;;;4842798;29;19924;-85
2023/12/12 09:07:44;;;;;;;10.23;2.67;;;;;;;;;;4842980;29;20058;-86
2023/12/12 09:10:14;;;;;;;7.68;2.30;;;;;;;;;;4843615;29;20054;-89
2023/12/12 09:12:45;;;;;;;6.32;2.42;;;;;;;;;;4828343;29;20057;-86
2023/12/12 09:15:17;;;;;;;7.18;2.72;;;;;;;;;;4843125;29;20058;-86
2023/12/12 09:17:47;;;;;;;3.83;2.22;;;;;;;;;;4842584;29;20057;-85
2023/12/12 09:20:38;;;;;;;8.68;2.95;;;;;;;;;;4843071;29;20054;-85
2023/12/12 09:23:10;;;;;;;9.55;2.15;;;;;;;;;;4828128;29;20060;-85
2023/12/12 09:25:40;;;;;;;6.80;2.80;;;;;;;;;;4842837;29;20053;-86
2023/12/12 09:28:10;;;;;;;6.85;1.90;;;;;;;;;;4842588;29;20489;-86
2023/12/12 09:30:41;;;;;;;8.30;2.38;;;;;;;;;;4843545;29;20065;-84
2023/12/12 09:33:11;;;;;;;7.72;2.00;;;;;;;;;;4842277;29;20516;-85
2023/12/12 09:35:42;;;;;;;3.88;1.80;;;;;;;;;;4844447;29;20050;-84
2023/12/12 09:38:12;;;;;;;3.97;1.90;;;;;;;;;;4842402;29;20494;-85
2023/12/12 09:40:42;;;;;;;6.40;1.30;;;;;;;;;;4843993;29;20387;-83
2023/12/12 09:43:15;;;;;;;8.45;2.33;;;;;;;;;;4844189;29;20520;-85
2023/12/12 09:45:46;;;;;;;6.25;1.98;;;;;;;;;;4842133;29;20053;-87
2023/12/12 09:48:18;;;;;;;2.75;1.38;;;;;;;;;;4843650;29;20065;-84
2023/12/12 09:50:50;;;;;;;5.20;1.98;;;;;;;;;;4843133;29;20532;-88
2023/12/12 09:53:21;;;;;;;3.85;1.25;;;;;;;;;;4840251;29;20042;-87
2023/12/12 09:55:53;;;;;;;4.68;1.80;;;;;;;;;;4844131;29;20046;-87
2023/12/12 09:58:26;;;;;;;5.75;1.70;;;;;;;;;;4828285;29;20054;-88
2023/12/12 10:00:59;;;;;;;2.53;1.58;;;;;;;;;;4847829;29;20072;-86
2023/12/12 10:03:32;;;;;;;3.22;1.42;;;;;;;;;;4842122;29;20524;-87
2023/12/12 10:06:08;;;;;;;3.83;1.70;;;;;;;;;;4842609;29;20054;-87
2023/12/12 10:08:40;;;;;;;2.70;1.65;;;;;;;;;;4841761;29;20050;-86
2023/12/12 10:11:10;;;;;;;3.17;1.60;;;;;;;;;;4841111;29;20057;-85
2023/12/12 10:13:53;;;;;;;2.30;1.50;;;;;;;;;;4841571;29;20054;-88
2023/12/12 10:16:27;;;;;;;4.00;1.35;;;;;;;;;;4835708;29;20429;-89
2023/12/12 10:19:03;;;;;;;1.92;1.50;;;;;;;;;;4826185;29;20058;-87
2023/12/12 10:21:34;;;;;;;1.63;1.00;;;;;;;;;;4840779;29;20375;-86
2023/12/12 10:24:05;;;;;;;3.67;1.60;;;;;;;;;;4853560;29;20493;-89
2023/12/12 10:26:36;;;;;;;3.13;1.40;;;;;;;;;;4861054;29;20053;-90
2023/12/12 10:29:07;;;;;;;2.63;1.60;;;;;;;;;;4860586;29;20053;-88
2023/12/12 10:31:37;;;;;;;2.92;1.60;;;;;;;;;;4862258;29;20057;-88
2023/12/12 10:34:07;;;;;;;13.38;9.38;;;;;;;;;;4845903;29;20058;-89
2023/12/12 10:36:40;;;;;;;5.03;1.35;;;;;;;;;;4858998;29;20425;-89
2023/12/12 10:39:12;;;;;;;3.35;1.45;;;;;;;;;;4859370;29;20520;-86
2023/12/12 10:41:57;;;;;;;2.17;1.58;;;;;;;;;;4858759;29;20052;-89
2023/12/12 10:44:32;;;;;;;2.58;1.35;;;;;;;;;;4859414;29;20054;-88
2023/12/12 10:47:04;;;;;;;4.15;1.45;;;;;;;;;;4860436;29;20504;-86
2023/12/12 10:49:37;;;;;;;3.40;1.60;;;;;;;;;;4860188;29;20045;-85
2023/12/12 10:52:08;;;;;;;2.72;1.50;;;;;;;;;;4844385;29;20064;-84
2023/12/12 10:54:43;;;;;;;2.47;1.58;;;;;;;;;;4860286;29;20045;-86
2023/12/12 10:57:17;;;;;;;2.10;1.30;;;;;;;;;;4859536;29;20064;-82
2023/12/12 10:59:49;;;;;;;7.45;3.78;;;;;;;;;;4860329;29;20049;-85
2023/12/12 11:02:32;;;;;;;6.95;4.45;;;;;;;;;;4861199;29;20531;-85
2023/12/12 11:05:06;;;;;;;5.05;2.58;;;;;;;;;;4858451;29;20050;-83
2023/12/12 11:07:37;;;;;;;2.92;1.50;;;;;;;;;;4860739;29;20053;-84
2023/12/12 11:10:13;;;;;;;2.63;1.58;;;;;;;;;;4860928;29;20049;-85
2023/12/12 11:12:53;;;;;;;4.85;2.35;;;;;;;;;;4859238;29;20076;-86
2023/12/12 11:15:27;;;;;;;2.67;1.73;;;;;;;;;;4859591;29;20049;-84
2023/12/12 11:17:58;;;;;;;3.20;1.67;;;;;;;;;;4861206;29;20053;-85
2023/12/12 11:20:37;;;;;;;1.77;1.25;;;;;;;;;;4861189;29;20116;-85
2023/12/12 11:23:08;;;;;;;4.30;1.35;;;;;;;;;;4861528;29;20053;-86
2023/12/12 11:25:43;;;;;;;4.07;1.60;;;;;;;;;;4860919;29;20485;-85
2023/12/12 11:28:14;;;;;;;4.15;1.52;;;;;;;;;;4858946;29;20053;-85
2023/12/12 11:30:44;;;;;;;5.25;1.85;;;;;;;;;;4861169;29;20053;-84
2023/12/12 11:33:16;;;;;;;2.83;1.67;;;;;;;;;;4859245;29;20437;-86
2023/12/12 11:35:47;;;;;;;1.95;1.15;;;;;;;;;;4860134;29;20053;-86
2023/12/12 11:38:33;;;;;;;1.98;1.10;;;;;;;;;;4860767;29;20045;-85
2023/12/12 11:41:11;;;;;;;3.55;1.50;;;;;;;;;;4860762;29;20045;-86
2023/12/12 11:43:42;;;;;;;5.70;1.73;;;;;;;;;;4860295;29;20185;-87
2023/12/12 11:46:19;;;;;;;2.10;1.40;;;;;;;;;;4860533;29;20049;-86
2023/12/12 11:48:49;;;;;;;3.10;1.40;;;;;;;;;;4858692;29;20050;-86
2023/12/12 11:51:34;;;;;;;2.53;1.65;;;;;;;;;;4859424;29;20473;-86
2023/12/12 11:54:06;;;;;;;3.55;1.83;;;;;;;;;;4857925;29;20057;-86
2023/12/12 11:56:37;;;;;;;3.65;2.33;;;;;;;;;;4859192;29;20050;-88
2023/12/12 11:59:07;;;;;;;2.45;1.35;;;;;;;;;;4860224;29;20489;-87
2023/12/12 12:01:38;;;;;;;3.65;1.95;;;;;;;;;;4836749;29;20061;-86
2023/12/12 12:04:08;;;;;;;3.47;1.80;;;;;;;;;;4840678;29;20053;-87
2023/12/12 12:06:39;;;;;;;5.25;1.85;;;;;;;;;;4837757;29;20054;-86
2023/12/12 12:09:12;;;;;;;3.17;1.90;;;;;;;;;;4840527;29;20053;-88
2023/12/12 12:11:51;;;;;;;3.13;1.60;;;;;;;;;;4839247;29;20054;-86
2023/12/12 12:14:23;;;;;;;4.40;1.20;;;;;;;;;;4839956;29;20421;-86
2023/12/12 12:16:56;;;;;;;2.90;1.40;;;;;;;;;;4841121;29;20057;-87
2023/12/12 12:19:28;;;;;;;4.65;2.17;;;;;;;;;;4840993;29;20062;-85
2023/12/12 12:22:08;;;;;;;2.20;1.63;;;;;;;;;;4824797;29;20058;-86
2023/12/12 12:24:41;;;;;;;;;;;;;;;;;;4841597;29;20053;-86
2023/12/12 12:27:13;;;;;;;2.00;1.40;;;;;;;;;;4826324;29;19996;-86
2023/12/12 12:30:01;;;;;;;7.22;2.80;;;;;;;;;;4839275;29;20054;-86
2023/12/12 12:32:31;;;;;;;3.90;1.70;;;;;;;;;;4840953;29;20454;-86
2023/12/12 12:35:12;;;;;;;2.80;1.60;;;;;;;;;;4839579;29;20054;-86
2023/12/12 12:37:44;;;;;;;3.28;1.60;;;;;;;;;;4825022;29;20061;-87
2023/12/12 12:40:34;;;;;;;2.10;1.55;;;;;;;;;;4840666;29;20066;-87
2023/12/12 12:43:18;;;;;;;3.40;1.33;;;;;;;;;;4824915;29;20429;-83
2023/12/12 12:45:49;;;;;;;3.50;1.75;;;;;;;;;;4839632;29;20536;-86
2023/12/12 12:48:21;;;;;;;2.83;1.00;;;;;;;;;;4842397;29;20489;-85
2023/12/12 12:50:53;;;;;;;10.50;8.32;;;;;;;;;;4844309;29;20045;-84
2023/12/12 12:53:23;;;;;;;9.50;5.85;;;;;;;;;;4844477;29;20057;-83
2023/12/12 12:55:54;;;;;;;5.97;3.42;;;;;;;;;;4833372;29;20065;-85
2023/12/12 12:58:26;;;;;;;5.68;2.90;;;;;;;;;;4825694;29;20062;-83
2023/12/12 13:00:56;;;;;;;4.10;2.25;;;;;;;;;;4825363;29;20050;-85
2023/12/12 13:03:26;;;;;;;5.45;4.35;;;;;;;;;;4825520;29;20528;-83
2023/12/12 13:05:56;;;;;;;2.85;2.03;;;;;;;;;;4843965;29;20532;-84
2023/12/12 13:08:26;;;;;;;4.40;2.03;;;;;;;;;;4843428;29;20058;-84
2023/12/12 13:10:56;;;;;;;34.95;20.42;;;;;;;;;;4843218;29;20053;-83
2023/12/12 13:13:26;;;;;;;4.47;2.10;;;;;;;;;;4842161;29;20081;-84
2023/12/12 13:15:56;;;;;;;2.58;1.55;;;;;;;;;;4842359;29;20053;-84
2023/12/12 13:18:26;;;;;;;3.22;1.77;;;;;;;;;;4843862;29;20050;-84
2023/12/12 13:20:56;;;;;;;2.80;1.85;;;;;;;;;;4843584;29;20053;-84
2023/12/12 13:23:26;;;;;;;5.43;1.83;;;;;;;;;;4843947;29;20045;-84
2023/12/12 13:25:56;;;;;;;6.60;1.73;;;;;;;;;;4842388;29;20057;-84
2023/12/12 13:28:26;;;;;;;2.38;1.45;;;;;;;;;;4843696;29;20057;-85
2023/12/12 13:30:57;;;;;;;3.88;1.63;;;;;;;;;;4842901;29;20049;-84
2023/12/12 13:33:30;;;;;;;3.38;1.60;;;;;;;;;;4842661;29;20049;-84
2023/12/12 13:36:00;;;;;;;3.25;1.73;;;;;;;;;;4840680;29;20057;-83
2023/12/12 13:38:31;;;;;;;3.97;1.15;;;;;;;;;;4842637;29;20399;-83
2023/12/12 13:41:02;;;;;;;2.95;2.03;;;;;;;;;;4842046;29;20054;-85
2023/12/12 13:43:33;;;;;;;2.83;1.70;;;;;;;;;;4843241;29;20046;-85
2023/12/12 13:46:03;;;;;;;3.28;1.80;;;;;;;;;;4843789;29;20492;-86
2023/12/12 13:48:34;;;;;;;2.08;1.52;;;;;;;;;;4841174;29;20505;-85
2023/12/12 13:51:05;;;;;;;3.20;1.70;;;;;;;;;;4841485;29;20046;-82
2023/12/12 13:53:39;;;;;;;9.07;2.08;;;;;;;;;;4843264;29;20496;-83
2023/12/12 13:56:09;;;;;;;4.50;1.27;;;;;;;;;;4842204;29;20417;-85
2023/12/12 13:58:39;;;;;;;2.40;1.63;;;;;;;;;;4843117;29;20057;-81
2023/12/12 14:01:14;;;;;;;3.42;1.80;;;;;;;;;;4843274;29;20149;-82
2023/12/12 14:03:45;;;;;;;2.55;1.60;;;;;;;;;;4837672;29;20054;-83
2023/12/12 14:06:14;;;;;;;2.13;1.60;;;;;;;;;;4840339;29;20061;-84
2023/12/12 14:08:44;;;;;;;3.50;1.60;;;;;;;;;;4841628;29;20058;-85
2023/12/12 14:11:14;;;;;;;3.05;1.65;;;;;;;;;;4840319;29;20057;-83
2023/12/12 14:13:44;;;;;;;2.53;1.55;;;;;;;;;;4842799;29;20493;-83
2023/12/12 14:16:15;;;;;;;2.97;1.63;;;;;;;;;;4842884;29;20053;-84
2023/12/12 14:18:46;;;;;;;3.13;1.83;;;;;;;;;;4841220;29;20062;-82
2023/12/12 14:21:18;;;;;;;3.60;1.70;;;;;;;;;;4840042;29;20056;-82
2023/12/12 14:23:49;;;;;;;4.55;1.50;;;;;;;;;;4842836;29;20060;-82
2023/12/12 14:26:23;;;;;;;3.22;1.83;;;;;;;;;;4841355;29;20057;-82
2023/12/12 14:28:54;;;;;;;3.40;2.22;;;;;;;;;;4841572;29;20497;-84
2023/12/12 14:31:24;;;;;;;3.38;1.50;;;;;;;;;;4842627;29;20062;-82
2023/12/12 14:33:54;;;;;;;2.70;1.70;;;;;;;;;;4841346;29;20064;-83
2023/12/12 14:36:26;;;;;;;;;;;;;;;;;;4843230;29;20068;-83
2023/12/12 14:38:57;;;;;;;2.85;1.58;;;;;;;;;;4840736;29;19924;-82
2023/12/12 14:41:28;;;;;;;2.65;2.15;;;;;;;;;;4840982;29;20050;-83
2023/12/12 14:43:58;;;;;;;3.03;1.42;;;;;;;;;;4842879;29;20069;-81
2023/12/12 14:46:28;;;;;;;3.60;2.00;;;;;;;;;;4826159;29;20061;-82
2023/12/12 14:48:59;;;;;;;2.70;1.50;;;;;;;;;;4841576;29;20458;-81
2023/12/12 14:51:30;;;;;;;5.78;1.75;;;;;;;;;;4834765;29;20073;-83
2023/12/12 14:54:00;;;;;;;3.53;1.80;;;;;;;;;;4841143;29;20049;-81
2023/12/12 14:56:31;;;;;;;3.78;1.63;;;;;;;;;;4839673;29;20053;-83
2023/12/12 14:59:04;;;;;;;3.42;1.63;;;;;;;;;;4840029;29;20514;-82
2023/12/12 15:01:34;;;;;;;2.30;1.45;;;;;;;;;;4841946;29;20057;-80
2023/12/12 15:04:05;;;;;;;2.75;1.60;;;;;;;;;;4841514;29;20054;-83
2023/12/12 15:06:35;;;;;;;5.75;2.03;;;;;;;;;;4841871;29;20046;-82
2023/12/12 15:09:06;;;;;;;3.53;1.75;;;;;;;;;;4824047;29;20517;-82
2023/12/12 15:11:39;;;;;;;4.70;2.25;;;;;;;;;;4822483;29;20054;-83